createdAt,value
2016-12-07T00:00:39.775Z,25.7
2016-12-07T00:01:41.997Z,25.7
2016-12-07T00:02:42.028Z,25.7
2016-12-07T00:03:39.922Z,25.7
2016-12-07T00:04:42.237Z,25.7
2016-12-07T00:05:40.043Z,25.7
2016-12-07T00:06:40.217Z,25.7
2016-12-07T00:07:40.293Z,25.7
2016-12-07T00:08:42.461Z,25.7
2016-12-07T00:09:40.266Z,25.7
2016-12-07T00:10:42.482Z,25.7
2016-12-07T00:11:40.361Z,25.7
2016-12-07T00:12:42.632Z,25.7
2016-12-07T00:13:42.702Z,25.7
2016-12-07T00:14:42.697Z,25.7
2016-12-07T00:15:40.669Z,25.7
2016-12-07T00:16:40.683Z,25.7
2016-12-07T00:17:42.783Z,25.7
2016-12-07T00:18:40.717Z,25.7
2016-12-07T00:19:42.844Z,25.7
2016-12-07T00:20:40.781Z,25.7
2016-12-07T00:21:40.917Z,25.7
2016-12-07T00:22:43.124Z,25.7
2016-12-07T00:23:43.115Z,25.7
2016-12-07T00:24:40.907Z,25.7
2016-12-07T00:25:41.049Z,25.7
2016-12-07T00:26:43.227Z,25.7
2016-12-07T00:27:41.151Z,25.7
2016-12-07T00:28:43.407Z,25.7
2016-12-07T00:29:41.284Z,25.7
2016-12-07T00:30:43.412Z,25.7
2016-12-07T00:31:43.416Z,25.7
2016-12-07T00:32:43.422Z,25.7
2016-12-07T00:33:41.197Z,25.7
2016-12-07T00:34:43.467Z,25.7
2016-12-07T00:35:43.586Z,25.7
2016-12-07T00:36:41.444Z,25.7
2016-12-07T00:37:41.524Z,25.7
2016-12-07T00:38:41.551Z,25.7
2016-12-07T00:39:41.654Z,25.7
2016-12-07T00:40:41.640Z,25.7
2016-12-07T00:41:41.587Z,25.7
2016-12-07T00:42:41.602Z,25.7
2016-12-07T00:43:43.795Z,25.7
2016-12-07T00:44:41.741Z,25.7
2016-12-07T00:45:43.994Z,25.7
2016-12-07T00:46:44.083Z,25.7
2016-12-07T00:47:44.219Z,25.7
2016-12-07T00:48:44.167Z,25.7
2016-12-07T00:49:42.115Z,25.7
2016-12-07T00:50:44.296Z,25.7
2016-12-07T00:51:42.146Z,25.7
2016-12-07T00:52:44.344Z,25.7
2016-12-07T00:53:42.298Z,25.7
2016-12-07T00:54:44.458Z,25.7
2016-12-07T00:55:42.327Z,25.7
2016-12-07T00:56:44.616Z,25.7
2016-12-07T00:57:44.624Z,25.7
2016-12-07T00:58:42.489Z,25.7
2016-12-07T00:59:44.666Z,25.7
2016-12-07T01:00:44.814Z,25.7
2016-12-07T01:01:42.631Z,25.7
2016-12-07T01:02:42.792Z,25.7
2016-12-07T01:03:42.799Z,25.7
2016-12-07T01:04:44.977Z,25.7
2016-12-07T01:05:44.965Z,25.7
2016-12-07T01:06:44.986Z,25.7
2016-12-07T01:07:45.047Z,25.7
2016-12-07T01:08:45.181Z,25.7
2016-12-07T01:09:43.680Z,25.7
2016-12-07T01:10:45.221Z,25.7
2016-12-07T01:11:45.251Z,25.7
2016-12-07T01:12:43.195Z,25.7
2016-12-07T01:13:45.457Z,25.7
2016-12-07T01:14:45.578Z,25.7
2016-12-07T01:15:43.311Z,25.7
2016-12-07T01:16:45.560Z,25.7
2016-12-07T01:17:43.488Z,25.7
2016-12-07T01:18:43.434Z,25.7
2016-12-07T01:19:45.711Z,25.7
2016-12-07T01:20:43.521Z,25.7
2016-12-07T01:21:43.579Z,25.7
2016-12-07T01:22:45.783Z,25.7
2016-12-07T01:23:43.733Z,25.7
2016-12-07T01:24:43.712Z,25.7
2016-12-07T01:25:46.026Z,25.7
2016-12-07T01:26:43.832Z,25.7
2016-12-07T01:27:43.845Z,25.7
2016-12-07T01:28:45.958Z,25.7
2016-12-07T01:29:45.988Z,25.7
2016-12-07T01:30:43.972Z,25.7
2016-12-07T01:31:44.028Z,25.7
2016-12-07T01:32:43.942Z,25.7
2016-12-07T01:33:46.181Z,25.7
2016-12-07T01:34:46.293Z,25.7
2016-12-07T01:35:44.141Z,25.7
2016-12-07T01:36:44.052Z,25.7
2016-12-07T01:37:46.264Z,25.7
2016-12-07T01:38:46.371Z,25.7
2016-12-07T01:39:44.216Z,25.7
2016-12-07T01:40:46.351Z,25.7
2016-12-07T01:41:46.387Z,25.7
2016-12-07T01:42:44.241Z,25.7
2016-12-07T01:43:46.520Z,25.7
2016-12-07T01:44:44.331Z,25.7
2016-12-07T01:45:44.381Z,25.7
2016-12-07T01:46:44.563Z,25.7
2016-12-07T01:47:44.474Z,25.7
2016-12-07T01:48:46.680Z,25.7
2016-12-07T01:49:46.773Z,25.7
2016-12-07T01:50:46.885Z,25.7
2016-12-07T01:51:44.717Z,25.7
2016-12-07T01:52:44.733Z,25.7
2016-12-07T01:53:44.819Z,25.7
2016-12-07T01:54:47.021Z,25.7
2016-12-07T01:55:47.148Z,25.7
2016-12-07T01:56:44.863Z,25.7
2016-12-07T01:57:47.156Z,25.7
2016-12-07T01:58:47.123Z,25.7
2016-12-07T01:59:47.177Z,25.7
2016-12-07T02:00:47.255Z,25.7
2016-12-07T02:01:45.100Z,25.7
2016-12-07T02:02:45.210Z,25.7
2016-12-07T02:03:47.470Z,25.7
2016-12-07T02:04:45.294Z,25.7
2016-12-07T02:05:45.321Z,25.7
2016-12-07T02:06:47.617Z,25.7
2016-12-07T02:07:45.410Z,25.7
2016-12-07T02:08:45.393Z,25.7
2016-12-07T02:09:47.599Z,25.7
2016-12-07T02:10:45.559Z,25.7
2016-12-07T02:11:47.725Z,25.7
2016-12-07T02:12:47.739Z,25.7
2016-12-07T02:13:45.550Z,25.7
2016-12-07T02:14:47.752Z,25.7
2016-12-07T02:15:45.688Z,25.7
2016-12-07T02:16:45.632Z,25.7
2016-12-07T02:17:47.957Z,25.7
2016-12-07T02:18:47.957Z,25.7
2016-12-07T02:19:45.810Z,25.7
2016-12-07T02:20:48.009Z,25.7
2016-12-07T02:21:45.797Z,25.7
2016-12-07T02:22:48.010Z,25.7
2016-12-07T02:23:48.055Z,25.7
2016-12-07T02:24:48.163Z,25.7
2016-12-07T02:25:48.250Z,25.7
2016-12-07T02:26:48.267Z,25.7
2016-12-07T02:27:46.200Z,25.7
2016-12-07T02:28:48.376Z,25.7
2016-12-07T02:29:48.439Z,25.7
2016-12-07T02:30:48.500Z,25.7
2016-12-07T02:31:46.399Z,25.7
2016-12-07T02:32:48.683Z,25.7
2016-12-07T02:33:48.699Z,25.7
2016-12-07T02:34:46.544Z,25.7
2016-12-07T02:35:46.753Z,25.7
2016-12-07T02:36:48.918Z,25.7
2016-12-07T02:37:46.851Z,25.7
2016-12-07T02:38:49.013Z,25.7
2016-12-07T02:39:48.997Z,25.7
2016-12-07T02:40:49.147Z,25.7
2016-12-07T02:41:47.041Z,25.7
2016-12-07T02:42:46.998Z,25.7
2016-12-07T02:43:49.239Z,25.7
2016-12-07T02:44:49.395Z,25.7
2016-12-07T02:45:47.254Z,25.7
2016-12-07T02:46:49.380Z,25.7
2016-12-07T02:47:47.392Z,25.7
2016-12-07T02:48:49.550Z,25.7
2016-12-07T02:49:49.602Z,25.7
2016-12-07T02:50:49.700Z,25.7
2016-12-07T02:51:47.492Z,25.7
2016-12-07T02:52:49.694Z,25.7
2016-12-07T02:53:49.791Z,25.7
2016-12-07T02:54:49.737Z,25.7
2016-12-07T02:55:49.829Z,25.7
2016-12-07T02:56:49.747Z,25.7
2016-12-07T02:57:49.889Z,25.7
2016-12-07T02:58:49.890Z,25.7
2016-12-07T02:59:47.781Z,25.7
2016-12-07T03:00:47.836Z,25.7
2016-12-07T03:01:47.935Z,25.7
2016-12-07T03:02:50.104Z,25.7
2016-12-07T03:03:48.168Z,25.7
2016-12-07T03:04:48.174Z,25.7
2016-12-07T03:05:48.057Z,25.7
2016-12-07T03:06:50.209Z,25.7
2016-12-07T03:07:50.329Z,25.7
2016-12-07T03:08:50.417Z,25.7
2016-12-07T03:09:51.868Z,25.7
2016-12-07T03:10:51.218Z,25.7
2016-12-07T03:11:50.735Z,25.7
2016-12-07T03:12:48.967Z,25.7
2016-12-07T03:13:51.268Z,25.7
2016-12-07T03:14:50.694Z,25.7
2016-12-07T03:15:49.088Z,25.7
2016-12-07T03:16:50.718Z,25.7
2016-12-07T03:17:48.619Z,25.7
2016-12-07T03:18:48.608Z,25.7
2016-12-07T03:19:48.649Z,25.7
2016-12-07T03:20:48.801Z,25.7
2016-12-07T03:21:48.868Z,25.7
2016-12-07T03:22:48.813Z,25.7
2016-12-07T03:23:48.896Z,25.7
2016-12-07T03:24:49.044Z,25.7
2016-12-07T03:25:49.119Z,25.7
2016-12-07T03:26:49.068Z,25.7
2016-12-07T03:27:51.392Z,25.7
2016-12-07T03:28:49.206Z,25.7
2016-12-07T03:29:49.224Z,25.7
2016-12-07T03:30:51.524Z,25.7
2016-12-07T03:31:51.614Z,25.7
2016-12-07T03:32:49.478Z,25.7
2016-12-07T03:33:51.738Z,25.7
2016-12-07T03:34:51.780Z,25.7
2016-12-07T03:35:51.758Z,25.7
2016-12-07T03:36:49.751Z,25.7
2016-12-07T03:38:49.892Z,25.7
2016-12-07T03:39:49.996Z,25.7
2016-12-07T03:40:52.273Z,25.7
2016-12-07T03:41:50.289Z,25.7
2016-12-07T03:42:52.387Z,25.7
2016-12-07T03:43:50.305Z,25.7
2016-12-07T03:44:50.409Z,25.7
2016-12-07T03:45:52.606Z,25.7
2016-12-07T03:46:52.636Z,25.7
2016-12-07T03:47:50.479Z,25.7
2016-12-07T03:48:52.680Z,25.7
2016-12-07T03:49:52.702Z,25.7
2016-12-07T03:50:52.753Z,25.7
2016-12-07T03:51:50.586Z,25.7
2016-12-07T03:52:52.823Z,25.7
2016-12-07T03:53:50.694Z,25.7
2016-12-07T03:54:52.885Z,25.7
2016-12-07T03:55:50.875Z,25.7
2016-12-07T03:56:53.008Z,25.7
2016-12-07T03:57:50.876Z,25.7
2016-12-07T03:58:50.878Z,25.7
2016-12-07T03:59:53.111Z,25.7
2016-12-07T04:00:53.183Z,25.7
2016-12-07T04:01:51.041Z,25.7
2016-12-07T04:02:53.235Z,25.7
2016-12-07T04:03:51.301Z,25.7
2016-12-07T04:04:53.503Z,25.7
2016-12-07T04:05:51.397Z,25.7
2016-12-07T04:06:51.424Z,25.7
2016-12-07T04:07:53.633Z,25.7
2016-12-07T04:08:51.540Z,25.7
2016-12-07T04:09:53.781Z,25.7
2016-12-07T04:10:51.629Z,25.6
2016-12-07T04:11:51.678Z,25.6
2016-12-07T04:12:51.752Z,25.6
2016-12-07T04:13:54.015Z,25.6
2016-12-07T04:14:54.052Z,25.6
2016-12-07T04:15:51.885Z,25.6
2016-12-07T04:16:54.061Z,25.6
2016-12-07T04:17:51.952Z,25.6
2016-12-07T04:18:52.001Z,25.6
2016-12-07T04:19:52.055Z,25.6
2016-12-07T04:20:54.260Z,25.6
2016-12-07T04:21:54.378Z,25.6
2016-12-07T04:22:54.434Z,25.6
2016-12-07T04:23:54.472Z,25.7
2016-12-07T04:24:54.472Z,25.6
2016-12-07T04:25:52.362Z,25.7
2016-12-07T04:26:52.468Z,25.7
2016-12-07T04:27:52.492Z,25.7
2016-12-07T04:28:54.630Z,25.7
2016-12-07T04:29:52.507Z,25.7
2016-12-07T04:30:52.512Z,25.7
2016-12-07T04:31:52.600Z,25.7
2016-12-07T04:32:52.645Z,25.7
2016-12-07T04:33:52.657Z,25.7
2016-12-07T04:34:54.784Z,25.7
2016-12-07T04:35:52.674Z,25.7
2016-12-07T04:36:52.711Z,25.7
2016-12-07T04:37:52.739Z,25.7
2016-12-07T04:38:52.794Z,25.7
2016-12-07T04:39:54.993Z,25.7
2016-12-07T04:40:54.994Z,25.7
2016-12-07T04:41:52.879Z,25.7
2016-12-07T04:42:55.116Z,25.7
2016-12-07T04:43:52.978Z,25.7
2016-12-07T04:44:53.022Z,25.7
2016-12-07T04:45:53.101Z,25.7
2016-12-07T04:46:53.171Z,25.7
2016-12-07T04:47:53.266Z,25.7
2016-12-07T04:48:55.440Z,25.7
2016-12-07T04:49:53.329Z,25.7
2016-12-07T04:50:55.514Z,25.7
2016-12-07T04:51:55.566Z,25.6
2016-12-07T04:52:53.483Z,25.6
2016-12-07T04:53:55.716Z,25.7
2016-12-07T04:54:53.558Z,25.7
2016-12-07T04:55:55.740Z,25.7
2016-12-07T04:56:55.832Z,25.6
2016-12-07T04:57:55.891Z,25.7
2016-12-07T04:58:53.780Z,25.7
2016-12-07T04:59:53.873Z,25.6
2016-12-07T05:00:53.875Z,25.7
2016-12-07T05:01:53.881Z,25.6
2016-12-07T05:02:56.059Z,25.6
2016-12-07T05:03:53.972Z,25.6
2016-12-07T05:04:56.222Z,25.6
2016-12-07T05:05:54.063Z,25.6
2016-12-07T05:06:56.303Z,25.6
2016-12-07T05:07:56.309Z,25.6
2016-12-07T05:08:56.383Z,25.6
2016-12-07T05:09:54.240Z,25.6
2016-12-07T05:10:56.404Z,25.6
2016-12-07T05:11:54.318Z,25.7
2016-12-07T05:12:54.361Z,25.8
2016-12-07T05:13:56.524Z,25.9
2016-12-07T05:14:56.584Z,26.2
2016-12-07T05:15:54.480Z,26.6
2016-12-07T05:16:56.719Z,26.8
2016-12-07T05:17:56.798Z,26.8
2016-12-07T05:18:56.827Z,27
2016-12-07T05:19:56.823Z,27.3
2016-12-07T05:20:54.734Z,27.5
2016-12-07T05:21:54.871Z,27.8
2016-12-07T05:22:54.955Z,28.1
2016-12-07T05:23:57.135Z,28.3
2016-12-07T05:24:57.153Z,28.5
2016-12-07T05:25:55.049Z,28.7
2016-12-07T05:26:55.160Z,28.9
2016-12-07T05:27:55.175Z,29.1
2016-12-07T05:28:57.463Z,29.2
2016-12-07T05:29:57.458Z,29.4
2016-12-07T05:30:57.540Z,29.5
2016-12-07T05:31:57.679Z,29.6
2016-12-07T05:32:57.693Z,29.7
2016-12-07T05:33:55.578Z,29.7
2016-12-07T05:34:55.615Z,29.8
2016-12-07T05:35:55.609Z,29.9
2016-12-07T05:36:55.617Z,29.9
2016-12-07T05:37:57.853Z,29.9
2016-12-07T05:38:55.803Z,30
2016-12-07T05:39:57.914Z,30
2016-12-07T05:40:55.828Z,30
2016-12-07T05:41:58.035Z,30.1
2016-12-07T05:42:58.127Z,30.1
2016-12-07T05:43:55.996Z,30.1
2016-12-07T05:44:58.207Z,30.1
2016-12-07T05:45:58.304Z,30.1
2016-12-07T05:46:58.378Z,30.1
2016-12-07T05:47:58.387Z,30.1
2016-12-07T05:48:56.220Z,30.1
2016-12-07T05:49:58.502Z,30.1
2016-12-07T05:50:56.341Z,30
2016-12-07T05:51:58.514Z,30
2016-12-07T05:52:56.471Z,30
2016-12-07T05:53:56.531Z,30.1
2016-12-07T05:54:58.761Z,30.1
2016-12-07T05:55:56.701Z,30.1
2016-12-07T05:56:58.948Z,30.1
2016-12-07T05:57:58.982Z,30
2016-12-07T05:58:59.046Z,30
2016-12-07T05:59:56.955Z,30
2016-12-07T06:00:59.119Z,30
2016-12-07T06:01:57.043Z,30
2016-12-07T06:02:57.045Z,30
2016-12-07T06:03:59.322Z,30.1
2016-12-07T06:04:57.210Z,30.1
2016-12-07T06:05:59.358Z,30.1
2016-12-07T06:06:59.355Z,30.1
2016-12-07T06:07:59.445Z,30.1
2016-12-07T06:08:57.370Z,30.1
2016-12-07T06:09:59.574Z,30.1
2016-12-07T06:10:59.620Z,30.1
2016-12-07T06:11:57.513Z,30.1
2016-12-07T06:12:57.602Z,30.1
2016-12-07T06:13:59.768Z,30
2016-12-07T06:14:57.644Z,30
2016-12-07T06:15:59.864Z,30
2016-12-07T06:17:00.012Z,30
2016-12-07T06:17:57.877Z,29.9
2016-12-07T06:18:57.916Z,29.9
2016-12-07T06:20:00.084Z,29.9
2016-12-07T06:20:57.937Z,29.9
2016-12-07T06:21:58.056Z,29.9
2016-12-07T06:23:00.255Z,29.8
2016-12-07T06:24:00.277Z,29.8
2016-12-07T06:24:58.136Z,29.7
2016-12-07T06:26:00.285Z,29.7
2016-12-07T06:27:00.345Z,29.7
2016-12-07T06:28:00.382Z,29.9
2016-12-07T06:29:00.463Z,29.8
2016-12-07T06:29:58.345Z,29.8
2016-12-07T06:30:59.111Z,29.8
2016-12-07T06:31:58.515Z,29.8
2016-12-07T06:32:58.593Z,29.8
2016-12-07T06:34:00.762Z,29.8
2016-12-07T06:34:58.703Z,29.8
2016-12-07T06:36:02.744Z,29.8
2016-12-07T06:36:59.893Z,29.7
2016-12-07T06:37:58.810Z,29.8
2016-12-07T06:38:58.881Z,29.8
2016-12-07T06:40:01.055Z,29.8
2016-12-07T06:40:58.938Z,29.7
2016-12-07T06:42:01.206Z,29.6
2016-12-07T06:42:59.822Z,29.6
2016-12-07T06:43:59.071Z,29.5
2016-12-07T06:45:01.321Z,29.4
2016-12-07T06:45:59.247Z,29.4
2016-12-07T06:47:01.390Z,29.3
2016-12-07T06:47:59.239Z,29.3
2016-12-07T06:48:59.341Z,29.3
2016-12-07T06:50:01.503Z,29.3
2016-12-07T06:51:00.760Z,29.3
2016-12-07T06:51:59.490Z,29.2
2016-12-07T06:53:01.694Z,29.2
2016-12-07T06:53:59.628Z,29.1
2016-12-07T06:55:02.400Z,29.1
2016-12-07T06:55:59.712Z,29
2016-12-07T06:57:02.483Z,29
2016-12-07T06:57:59.845Z,29
2016-12-07T06:58:59.673Z,29
2016-12-07T06:59:59.758Z,29
2016-12-07T07:00:59.776Z,29
2016-12-07T07:02:00.454Z,29
2016-12-07T07:03:04.131Z,29
2016-12-07T07:04:02.284Z,29
2016-12-07T07:05:02.303Z,29.1
2016-12-07T07:06:02.354Z,29.2
2016-12-07T07:07:02.306Z,29.2
2016-12-07T07:08:02.378Z,29.2
2016-12-07T07:09:00.220Z,29.3
2016-12-07T07:10:00.342Z,29.3
2016-12-07T07:11:00.284Z,29.2
2016-12-07T07:12:00.453Z,29.3
2016-12-07T07:13:00.513Z,29.4
2016-12-07T07:14:02.685Z,29.5
2016-12-07T07:15:02.774Z,29.5
2016-12-07T07:16:02.893Z,29.4
2016-12-07T07:17:02.856Z,29.3
2016-12-07T07:18:04.633Z,29.3
2016-12-07T07:19:02.949Z,29.3
2016-12-07T07:20:03.007Z,29.2
2016-12-07T07:21:03.693Z,29.3
2016-12-07T07:22:00.925Z,29.2
2016-12-07T07:23:03.018Z,29.2
2016-12-07T07:24:01.005Z,29.2
2016-12-07T07:25:00.925Z,29.3
2016-12-07T07:26:03.233Z,29.3
2016-12-07T07:27:01.580Z,29.3
2016-12-07T07:28:03.863Z,29.3
2016-12-07T07:29:03.323Z,29.3
2016-12-07T07:30:01.702Z,29.3
2016-12-07T07:31:03.414Z,29.4
2016-12-07T07:32:03.486Z,29.4
2016-12-07T07:33:03.618Z,29.4
2016-12-07T07:34:01.445Z,29.4
2016-12-07T07:35:03.594Z,29.5
2016-12-07T07:36:04.298Z,29.5
2016-12-07T07:37:03.793Z,29.5
2016-12-07T07:38:02.506Z,29.5
2016-12-07T07:39:04.041Z,29.5
2016-12-07T07:40:05.379Z,29.6
2016-12-07T07:41:02.676Z,29.7
2016-12-07T07:42:01.962Z,29.8
2016-12-07T07:43:04.145Z,29.8
2016-12-07T07:44:05.859Z,29.8
2016-12-07T07:45:02.181Z,29.8
2016-12-07T07:46:02.181Z,29.8
2016-12-07T07:47:04.372Z,29.8
2016-12-07T07:48:04.486Z,29.8
2016-12-07T07:49:03.087Z,29.9
2016-12-07T07:50:04.497Z,29.9
2016-12-07T07:51:02.355Z,29.9
2016-12-07T07:52:05.082Z,30
2016-12-07T07:53:02.506Z,30
2016-12-07T07:54:05.810Z,30
2016-12-07T07:55:05.336Z,30
2016-12-07T07:56:02.675Z,30
2016-12-07T07:57:02.669Z,30
2016-12-07T07:58:03.393Z,30.1
2016-12-07T07:59:05.012Z,30.1
2016-12-07T08:00:05.605Z,30.1
2016-12-07T08:01:05.522Z,30.1
2016-12-07T08:02:05.539Z,30.1
2016-12-07T08:03:03.029Z,30.2
2016-12-07T08:04:06.340Z,30.2
2016-12-07T08:05:05.917Z,30.2
2016-12-07T08:06:05.827Z,30.2
2016-12-07T08:07:03.711Z,30.3
2016-12-07T08:08:07.025Z,30.3
2016-12-07T08:09:05.512Z,30.4
2016-12-07T08:10:07.321Z,30.4
2016-12-07T08:11:03.753Z,30.4
2016-12-07T08:12:06.136Z,30.4
2016-12-07T08:13:03.244Z,30.5
2016-12-07T08:14:03.385Z,30.5
2016-12-07T08:15:05.499Z,30.5
2016-12-07T08:16:05.605Z,30.5
2016-12-07T08:17:06.686Z,30.5
2016-12-07T08:18:03.493Z,30.6
2016-12-07T08:19:08.489Z,30.6
2016-12-07T08:20:06.301Z,30.5
2016-12-07T08:21:03.593Z,30.6
2016-12-07T08:22:07.196Z,30.5
2016-12-07T08:23:03.717Z,30.5
2016-12-07T08:24:06.470Z,30.5
2016-12-07T08:25:03.768Z,30.5
2016-12-07T08:26:03.928Z,30.5
2016-12-07T08:27:06.736Z,30.5
2016-12-07T08:28:07.391Z,30.5
2016-12-07T08:29:06.787Z,30.5
2016-12-07T08:30:07.999Z,30.4
2016-12-07T08:31:06.255Z,30.4
2016-12-07T08:32:04.043Z,30.4
2016-12-07T08:33:08.039Z,30.4
2016-12-07T08:34:08.085Z,30.4
2016-12-07T08:35:05.930Z,30.4
2016-12-07T08:36:11.390Z,30.4
2016-12-07T08:37:14.202Z,30.4
2016-12-07T08:38:06.871Z,30.4
2016-12-07T08:39:12.627Z,30.3
2016-12-07T08:40:08.074Z,30.3
2016-12-07T08:41:12.862Z,30.3
2016-12-07T08:42:09.756Z,30.3
2016-12-07T08:43:17.012Z,30.3
2016-12-07T08:44:12.285Z,30.3
2016-12-07T08:45:16.984Z,30.3
2016-12-07T08:46:10.943Z,30.2
2016-12-07T08:47:10.531Z,30.2
2016-12-07T08:48:12.109Z,30.2
2016-12-07T08:49:11.841Z,30.2
2016-12-07T08:50:09.944Z,30.2
2016-12-07T08:51:10.934Z,30.2
2016-12-07T08:52:10.838Z,30.2
2016-12-07T08:54:09.165Z,30.2
2016-12-07T08:55:05.110Z,30.2
2016-12-07T08:56:08.895Z,29.7
2016-12-07T08:57:07.395Z,29.2
2016-12-07T08:58:05.875Z,28.9
2016-12-07T08:59:07.520Z,28.7
2016-12-07T09:00:07.749Z,28.4
2016-12-07T09:01:08.418Z,28.3
2016-12-07T09:02:07.775Z,28.1
2016-12-07T09:03:07.829Z,28
2016-12-07T09:04:05.725Z,27.8
2016-12-07T09:05:05.646Z,27.8
2016-12-07T09:06:06.394Z,27.7
2016-12-07T09:07:05.703Z,27.5
2016-12-07T09:08:05.843Z,27.4
2016-12-07T09:09:09.745Z,27.3
2016-12-07T09:10:10.075Z,27.2
2016-12-07T09:11:07.529Z,27.1
2016-12-07T09:12:06.661Z,27
2016-12-07T09:13:09.560Z,26.8
2016-12-07T09:14:10.359Z,26.8
2016-12-07T09:15:06.965Z,26.6
2016-12-07T09:16:06.799Z,26.5
2016-12-07T09:17:09.974Z,26.4
2016-12-07T09:18:09.285Z,26.3
2016-12-07T09:24:24.966Z,26.1
2016-12-07T09:26:28.415Z,26
2016-12-07T09:27:18.320Z,26
2016-12-07T09:28:28.265Z,26
2016-12-07T09:29:34.792Z,26
2016-12-07T09:30:11.341Z,26
2016-12-07T09:31:09.631Z,26
2016-12-07T09:32:09.365Z,26
2016-12-07T09:33:09.123Z,26
2016-12-07T09:34:11.617Z,26
2016-12-07T09:35:06.247Z,26
2016-12-07T09:36:06.022Z,26
2016-12-07T09:37:06.722Z,26
2016-12-07T09:38:03.758Z,26
2016-12-07T09:39:04.086Z,26
2016-12-07T09:40:06.481Z,26
2016-12-07T09:41:03.550Z,26.1
2016-12-07T09:42:05.730Z,26.2
2016-12-07T09:43:05.463Z,26.2
2016-12-07T09:44:17.787Z,26.3
2016-12-07T09:45:07.583Z,26.4
2016-12-07T09:46:05.369Z,26.5
2016-12-07T09:47:06.167Z,26.6
2016-12-07T09:48:05.722Z,26.7
2016-12-07T09:49:04.624Z,26.7
2016-12-07T09:50:04.011Z,26.9
2016-12-07T09:51:06.439Z,26.9
2016-12-07T09:52:07.459Z,27
2016-12-07T09:53:03.668Z,27.1
2016-12-07T09:54:03.775Z,27.2
2016-12-07T09:55:03.897Z,27.3
2016-12-07T09:56:04.595Z,27.3
2016-12-07T09:57:04.409Z,27.4
2016-12-07T09:58:04.353Z,27.4
2016-12-07T09:59:07.466Z,27.5
2016-12-07T10:00:07.893Z,27.7
2016-12-07T10:01:09.769Z,27.7
2016-12-07T10:02:08.564Z,27.7
2016-12-07T10:03:06.341Z,27.8
2016-12-07T10:04:06.467Z,27.8
2016-12-07T10:05:06.927Z,27.9
2016-12-07T10:06:04.164Z,27.9
2016-12-07T10:07:04.169Z,27.9
2016-12-07T10:08:06.440Z,27.9
2016-12-07T10:09:06.538Z,28
2016-12-07T10:10:04.358Z,28
2016-12-07T10:11:07.636Z,28.2
2016-12-07T10:12:07.159Z,28.2
2016-12-07T10:13:07.919Z,28.1
2016-12-07T10:14:05.056Z,28.1
2016-12-07T10:15:05.304Z,28.2
2016-12-07T10:16:07.083Z,28.2
2016-12-07T10:17:05.112Z,28.2
2016-12-07T10:18:06.725Z,28.2
2016-12-07T10:19:07.988Z,28.2
2016-12-07T10:20:08.018Z,28.2
2016-12-07T10:21:07.593Z,28.2
2016-12-07T10:22:06.512Z,28.2
2016-12-07T10:23:06.134Z,28.3
2016-12-07T10:24:09.885Z,28.3
2016-12-07T10:25:14.382Z,28.3
2016-12-07T10:26:09.409Z,28.3
2016-12-07T10:27:07.911Z,28.4
2016-12-07T10:28:08.579Z,28.6
2016-12-07T10:29:06.508Z,28.9
2016-12-07T10:30:08.166Z,28.9
2016-12-07T10:31:07.292Z,28.9
2016-12-07T10:32:10.167Z,28.9
2016-12-07T10:33:09.964Z,28.9
2016-12-07T10:34:08.771Z,28.9
2016-12-07T10:35:09.350Z,28.9
2016-12-07T10:36:05.628Z,28.9
2016-12-07T10:37:08.032Z,28.9
2016-12-07T10:38:08.051Z,29
2016-12-07T10:39:05.591Z,28.9
2016-12-07T10:40:10.198Z,29.1
2016-12-07T10:41:07.727Z,29
2016-12-07T10:42:06.578Z,29
2016-12-07T10:43:05.929Z,29.1
2016-12-07T10:44:09.272Z,29.1
2016-12-07T10:45:08.696Z,29.1
2016-12-07T10:46:06.588Z,29
2016-12-07T10:47:06.737Z,29
2016-12-07T10:48:08.885Z,29
2016-12-07T10:49:06.133Z,28.9
2016-12-07T10:50:07.465Z,28.9
2016-12-07T10:51:08.531Z,28.9
2016-12-07T10:52:08.524Z,28.9
2016-12-07T10:53:10.900Z,28.9
2016-12-07T10:54:07.074Z,28.9
2016-12-07T10:55:09.847Z,29
2016-12-07T10:56:09.659Z,29
2016-12-07T10:57:06.458Z,29
2016-12-07T10:58:10.417Z,29
2016-12-07T10:59:09.366Z,29
2016-12-07T11:00:09.454Z,29
2016-12-07T11:01:09.871Z,29
2016-12-07T11:02:07.804Z,29
2016-12-07T11:03:09.340Z,29
2016-12-07T11:04:08.552Z,29
2016-12-07T11:05:14.798Z,29
2016-12-07T11:06:07.504Z,29
2016-12-07T11:07:09.727Z,29
2016-12-07T11:08:08.752Z,29
2016-12-07T11:09:08.088Z,29
2016-12-07T11:10:08.461Z,29
2016-12-07T11:11:08.848Z,29
2016-12-07T11:12:10.058Z,29.1
2016-12-07T11:13:08.383Z,29.1
2016-12-07T11:14:07.313Z,29.1
2016-12-07T11:15:08.756Z,29.2
2016-12-07T11:16:09.638Z,29.2
2016-12-07T11:17:07.287Z,29.2
2016-12-07T11:18:11.958Z,29.1
2016-12-07T11:19:08.273Z,29.1
2016-12-07T11:20:12.942Z,29.1
2016-12-07T11:21:09.698Z,29.1
2016-12-07T11:22:11.416Z,29.2
2016-12-07T11:23:12.457Z,29.2
2016-12-07T11:24:12.357Z,29.2
2016-12-07T11:25:12.977Z,29.2
2016-12-07T11:26:13.345Z,29.2
2016-12-07T11:27:11.317Z,29.2
2016-12-07T11:28:09.306Z,29.3
2016-12-07T11:29:11.271Z,29.3
2016-12-07T11:30:11.643Z,29.2
2016-12-07T11:31:10.374Z,29.2
2016-12-07T11:32:10.478Z,29.1
2016-12-07T11:33:12.854Z,29.1
2016-12-07T11:34:13.869Z,29.1
2016-12-07T11:35:10.337Z,29.1
2016-12-07T11:36:14.127Z,29.1
2016-12-07T11:37:08.459Z,29.1
2016-12-07T11:38:14.428Z,29.1
2016-12-07T11:39:10.030Z,29.1
2016-12-07T11:40:16.317Z,29.1
2016-12-07T11:41:17.785Z,29.1
2016-12-07T11:42:15.794Z,29.1
2016-12-07T11:43:11.388Z,29.1
2016-12-07T11:44:24.185Z,29.1
2016-12-07T11:45:19.096Z,29.1
2016-12-07T11:46:16.143Z,29.1
2016-12-07T11:47:13.799Z,29.1
2016-12-07T11:48:10.439Z,29.1
2016-12-07T11:49:12.702Z,29.2
2016-12-07T11:50:11.213Z,29.2
2016-12-07T11:51:12.559Z,29.2
2016-12-07T11:52:14.155Z,29.2
2016-12-07T11:53:12.321Z,29.2
2016-12-07T11:54:09.545Z,29.1
2016-12-07T11:55:11.268Z,29.1
2016-12-07T11:56:10.749Z,29.1
2016-12-07T11:57:10.091Z,29.1
2016-12-07T11:58:13.107Z,29.1
2016-12-07T11:59:10.234Z,29.1
2016-12-07T12:00:12.623Z,29.1
2016-12-07T12:01:12.573Z,29.1
2016-12-07T12:02:13.069Z,29
2016-12-07T12:03:12.079Z,29
2016-12-07T12:04:15.236Z,28.9
2016-12-07T12:05:09.987Z,28.2
2016-12-07T12:06:12.451Z,27.7
2016-12-07T12:07:12.973Z,27.4
2016-12-07T12:08:12.524Z,27.2
2016-12-07T12:09:10.204Z,27
2016-12-07T12:10:14.425Z,26.8
2016-12-07T12:11:13.226Z,26.6
2016-12-07T12:12:12.641Z,26.4
2016-12-07T12:13:13.215Z,26.4
2016-12-07T12:14:12.644Z,26.2
2016-12-07T12:15:12.476Z,26
2016-12-07T12:16:12.688Z,25.9
2016-12-07T12:17:10.750Z,25.8
2016-12-07T12:18:14.491Z,25.7
2016-12-07T12:19:12.766Z,25.7
2016-12-07T12:20:13.693Z,25.6
2016-12-07T12:21:16.149Z,25.6
2016-12-07T12:22:23.080Z,25.5
2016-12-07T12:23:12.395Z,25.5
2016-12-07T12:24:17.082Z,25.3
2016-12-07T12:25:16.008Z,25.3
2016-12-07T12:26:13.647Z,25.2
2016-12-07T12:27:13.355Z,25.2
2016-12-07T12:28:11.139Z,25.2
2016-12-07T12:29:13.481Z,25.2
2016-12-07T12:30:13.446Z,25.2
2016-12-07T12:31:11.283Z,25.2
2016-12-07T12:32:14.154Z,25.3
2016-12-07T12:33:13.637Z,25.3
2016-12-07T12:34:12.018Z,25.3
2016-12-07T12:35:14.410Z,25.4
2016-12-07T12:36:16.130Z,25.4
2016-12-07T12:37:11.668Z,25.4
2016-12-07T12:38:12.403Z,25.5
2016-12-07T12:39:14.648Z,25.6
2016-12-07T12:40:11.831Z,25.7
2016-12-07T12:41:12.481Z,25.7
2016-12-07T12:42:13.231Z,25.8
2016-12-07T12:43:14.170Z,25.8
2016-12-07T12:44:14.212Z,25.9
2016-12-07T12:45:12.018Z,26
2016-12-07T12:46:13.511Z,26
2016-12-07T12:47:14.214Z,26
2016-12-07T12:48:14.346Z,26.1
2016-12-07T12:49:12.251Z,26.1
2016-12-07T12:50:14.431Z,26.2
2016-12-07T12:51:15.878Z,26.2
2016-12-07T12:52:15.738Z,26.3
2016-12-07T12:53:14.468Z,26.3
2016-12-07T12:54:14.508Z,26.4
2016-12-07T12:55:17.225Z,26.4
2016-12-07T12:56:21.111Z,26.5
2016-12-07T12:57:16.795Z,26.5
2016-12-07T12:58:13.386Z,26.6
2016-12-07T12:59:15.842Z,26.6
2016-12-07T13:00:14.958Z,26.7
2016-12-07T13:01:12.875Z,26.7
2016-12-07T13:02:15.662Z,26.8
2016-12-07T13:03:15.831Z,26.8
2016-12-07T13:04:15.198Z,26.9
2016-12-07T13:05:13.548Z,26.9
2016-12-07T13:06:14.398Z,27
2016-12-07T13:07:25.350Z,27
2016-12-07T13:08:13.347Z,27.1
2016-12-07T13:09:14.381Z,27.1
2016-12-07T13:10:14.557Z,27.1
2016-12-07T13:11:16.812Z,27.2
2016-12-07T13:12:13.489Z,27.3
2016-12-07T13:13:17.507Z,27.3
2016-12-07T13:14:16.521Z,27.3
2016-12-07T13:15:13.555Z,27.4
2016-12-07T13:16:16.579Z,27.4
2016-12-07T13:17:15.958Z,27.4
2016-12-07T13:18:15.899Z,27.5
2016-12-07T13:19:16.523Z,27.5
2016-12-07T13:20:16.118Z,27.5
2016-12-07T13:21:14.753Z,27.5
2016-12-07T13:22:14.109Z,27.6
2016-12-07T13:23:16.961Z,27.6
2016-12-07T13:24:14.108Z,27.6
2016-12-07T13:25:18.560Z,27.6
2016-12-07T13:26:18.369Z,27.6
2016-12-07T13:27:16.983Z,27.7
2016-12-07T13:28:17.637Z,27.7
2016-12-07T13:29:14.845Z,27.7
2016-12-07T13:30:17.687Z,27.7
2016-12-07T13:31:19.040Z,27.7
2016-12-07T13:32:19.054Z,27.8
2016-12-07T13:33:17.104Z,27.8